Time;durP1;ratioP1;P1;durP2;ratioP2;P2;SDS_P1;SDS_P2;PMS_P1;PMS_P2;Temp;Humidity;BMP_temperature;BMP_pressure;BME280_temperature;BME280_humidity;BME280_pressure;Samples;Min_cycle;Max_cycle;Signal;HPM_P1;HPM_P2
2022/08/06 00:01:01;;;;;;;4.53;4.07;;;25.40;99.90;;;;;;5156228;27;20022;-80
2022/08/06 00:03:27;;;;;;;7.25;4.07;;;25.40;99.90;;;;;;5155892;27;20444;-80
2022/08/06 00:05:52;;;;;;;4.20;3.90;;;25.30;99.90;;;;;;5156154;27;20046;-80
2022/08/06 00:08:18;;;;;;;4.07;3.53;;;25.20;99.90;;;;;;5137475;27;20049;-80
2022/08/06 00:10:44;;;;;;;4.85;3.58;;;25.20;99.90;;;;;;5155095;27;20108;-80
2022/08/06 00:13:10;;;;;;;5.20;3.90;;;25.20;99.90;;;;;;5155798;27;20082;-80
2022/08/06 00:15:36;;;;;;;4.50;3.95;;;25.10;99.90;;;;;;5137356;27;20460;-80
2022/08/06 00:18:02;;;;;;;4.50;3.60;;;25.10;99.90;;;;;;5155802;27;20026;-81
2022/08/06 00:20:27;;;;;;;4.20;3.90;;;25.00;99.90;;;;;;5156141;27;20058;-80
2022/08/06 00:22:53;;;;;;;4.95;3.63;;;25.00;99.90;;;;;;5155765;27;20090;-79
2022/08/06 00:25:19;;;;;;;4.25;3.80;;;25.00;99.90;;;;;;5155872;27;20034;-80
2022/08/06 00:27:45;;;;;;;6.90;3.60;;;25.00;99.90;;;;;;5137319;27;20103;-80
2022/08/06 00:30:11;;;;;;;10.25;3.88;;;24.90;99.90;;;;;;5137231;27;20175;-81
2022/08/06 00:32:36;;;;;;;4.07;3.67;;;24.90;99.90;;;;;;5137049;27;20023;-80
2022/08/06 00:35:03;;;;;;;4.22;3.78;;;24.80;99.90;;;;;;5155276;27;20031;-79
2022/08/06 00:37:31;;;;;;;4.22;3.92;;;24.80;99.90;;;;;;5155223;27;20033;-80
2022/08/06 00:39:58;;;;;;;5.57;3.92;;;24.80;99.90;;;;;;5137252;27;20050;-80
2022/08/06 00:42:24;;;;;;;4.82;3.88;;;24.80;99.90;;;;;;5155619;27;20042;-80
2022/08/06 00:44:50;;;;;;;4.53;3.88;;;24.80;99.90;;;;;;5136601;27;20530;-80
2022/08/06 00:47:16;;;;;;;4.95;4.00;;;24.70;99.90;;;;;;5155653;27;20047;-80
2022/08/06 00:49:41;;;;;;;4.28;3.72;;;24.60;99.90;;;;;;5155128;27;20375;-80
2022/08/06 00:52:07;;;;;;;4.35;3.90;;;24.60;99.90;;;;;;5155172;27;20459;-80
2022/08/06 00:54:33;;;;;;;4.57;3.75;;;24.60;99.90;;;;;;5136379;27;20026;-81
2022/08/06 00:56:58;;;;;;;4.50;4.10;;;24.50;99.90;;;;;;5155228;27;20027;-80
2022/08/06 00:59:24;;;;;;;3.95;3.60;;;24.50;99.90;;;;;;5136548;27;20471;-81
2022/08/06 01:01:50;;;;;;;4.25;3.85;;;24.50;99.90;;;;;;5137042;27;20027;-80
2022/08/06 01:04:15;;;;;;;5.28;3.65;;;24.50;99.90;;;;;;5136431;27;20118;-80
2022/08/06 01:06:41;;;;;;;8.30;3.65;;;24.50;99.90;;;;;;5155322;27;20027;-80
2022/08/06 01:09:08;;;;;;;3.70;3.30;;;24.50;99.90;;;;;;5155094;27;20026;-80
2022/08/06 01:11:33;;;;;;;5.95;4.10;;;24.50;99.90;;;;;;5155022;27;20015;-81
2022/08/06 01:13:59;;;;;;;4.25;3.83;;;24.60;99.90;;;;;;5136356;27;20543;-80
2022/08/06 01:16:34;;;;;;;5.25;3.95;;;24.60;99.90;;;;;;5155313;27;20019;-80
2022/08/06 01:19:18;;;;;;;6.38;4.50;;;24.70;99.90;;;;;;5155144;27;20023;-80
2022/08/06 01:22:12;;;;;;;4.38;3.97;;;24.70;99.90;;;;;;5154772;27;20034;-80
2022/08/06 01:24:53;;;;;;;4.05;3.63;;;24.80;99.90;;;;;;5150934;27;20128;-79
2022/08/06 01:27:31;;;;;;;3.78;3.58;;;24.80;99.90;;;;;;5154555;27;20023;-80
2022/08/06 01:30:04;;;;;;;5.30;3.57;;;24.80;99.90;;;;;;5154923;27;20098;-79
2022/08/06 01:32:35;;;;;;;4.55;3.92;;;24.90;99.90;;;;;;5154585;27;20023;-81
2022/08/06 01:35:11;;;;;;;8.05;3.70;;;24.90;99.90;;;;;;5154841;27;20064;-80
2022/08/06 01:38:07;;;;;;;3.47;3.25;;;24.90;99.90;;;;;;5136163;27;20027;-80
2022/08/06 01:40:37;;;;;;;3.63;3.40;;;25.00;99.90;;;;;;5152367;27;20058;-80
2022/08/06 01:43:07;;;;;;;3.67;3.25;;;25.00;99.90;;;;;;5136157;27;20464;-80
2022/08/06 01:45:35;;;;;;;4.80;3.20;;;25.00;99.90;;;;;;5136140;27;20387;-80
2022/08/06 01:48:09;;;;;;;4.20;3.42;;;24.90;99.90;;;;;;5135970;27;20375;-80
2022/08/06 01:50:40;;;;;;;4.05;3.70;;;24.90;99.90;;;;;;5154641;27;20027;-80
2022/08/06 01:53:08;;;;;;;6.70;3.50;;;24.90;99.90;;;;;;5154518;27;20037;-80
2022/08/06 01:55:40;;;;;;;6.25;3.17;;;24.80;99.90;;;;;;5154627;27;20106;-80
2022/08/06 01:58:07;;;;;;;3.05;2.80;;;24.80;99.90;;;;;;5154873;27;20058;-80
2022/08/06 02:00:38;;;;;;;7.18;3.10;;;24.80;99.90;;;;;;5137322;27;20458;-80
2022/08/06 02:03:14;;;;;;;3.90;2.97;;;24.80;99.90;;;;;;5155681;27;20094;-81
2022/08/06 02:05:42;;;;;;;3.55;3.15;;;24.70;99.90;;;;;;5137122;27;20094;-80
2022/08/06 02:08:11;;;;;;;3.40;3.10;;;24.70;99.90;;;;;;5155403;27;20075;-80
2022/08/06 02:10:37;;;;;;;9.68;3.10;;;24.60;99.90;;;;;;5136795;27;20030;-80
2022/08/06 02:13:04;;;;;;;2.80;2.60;;;24.50;99.90;;;;;;5154905;27;20019;-79
2022/08/06 02:15:32;;;;;;;3.38;3.03;;;24.30;99.90;;;;;;5154537;27;20038;-80
2022/08/06 02:18:01;;;;;;;3.75;3.08;;;24.20;99.90;;;;;;5135772;27;20511;-80
2022/08/06 02:20:40;;;;;;;6.45;3.53;;;24.00;99.90;;;;;;5154602;27;20026;-80
2022/08/06 02:23:11;;;;;;;3.35;3.15;;;23.90;99.90;;;;;;5135496;27;20110;-80
2022/08/06 02:25:39;;;;;;;3.30;3.00;;;23.80;99.90;;;;;;5135808;27;20435;-79
2022/08/06 02:28:06;;;;;;;3.65;3.30;;;23.70;99.90;;;;;;5135370;27;20027;-80
2022/08/06 02:30:40;;;;;;;8.07;3.25;;;23.60;99.90;;;;;;5135490;27;20388;-80
2022/08/06 02:33:07;;;;;;;5.63;3.38;;;23.40;99.90;;;;;;5136659;27;20023;-80
2022/08/06 02:35:45;;;;;;;4.38;3.58;;;23.30;99.90;;;;;;5139174;27;20035;-81
2022/08/06 02:38:31;;;;;;;3.75;3.22;;;23.10;99.90;;;;;;5139249;27;20452;-80
2022/08/06 02:41:16;;;;;;;7.55;3.60;;;23.10;99.90;;;;;;5157569;27;20051;-79
2022/08/06 02:43:49;;;;;;;5.13;3.10;;;23.00;99.90;;;;;;5139246;27;20023;-79
2022/08/06 02:46:33;;;;;;;4.18;3.40;;;22.90;99.90;;;;;;5157798;27;20041;-80
2022/08/06 02:49:07;;;;;;;4.00;3.63;;;22.80;99.90;;;;;;5139041;27;20371;-80
2022/08/06 02:51:48;;;;;;;4.70;3.83;;;22.80;99.90;;;;;;5139168;27;20037;-80
2022/08/06 02:54:37;;;;;;;4.95;3.30;;;22.70;99.90;;;;;;5139092;27;20022;-80
2022/08/06 02:57:04;;;;;;;;;;;22.60;99.90;;;;;;5156712;27;20460;-80
2022/08/06 02:59:33;;;;;;;4.13;3.63;;;22.50;99.90;;;;;;5138973;27;20241;-79
2022/08/06 03:02:01;;;;;;;3.75;3.45;;;22.50;99.90;;;;;;5157347;27;20029;-80
2022/08/06 03:04:29;;;;;;;4.55;3.75;;;22.40;99.90;;;;;;5139233;27;20421;-80
2022/08/06 03:06:58;;;;;;;3.97;3.28;;;22.30;99.90;;;;;;5157249;27;20102;-80
2022/08/06 03:09:24;;;;;;;;;;;22.30;99.90;;;;;;5157921;27;20031;-80
2022/08/06 03:11:52;;;;;;;3.80;3.47;;;22.30;99.90;;;;;;5157062;27;19903;-80
2022/08/06 03:14:21;;;;;;;8.35;3.70;;;22.20;99.90;;;;;;5157088;27;20031;-81
2022/08/06 03:16:48;;;;;;;5.15;3.60;;;22.20;99.90;;;;;;5156723;27;20042;-80
2022/08/06 03:19:14;;;;;;;5.03;3.47;;;22.10;99.90;;;;;;5138333;27;20079;-80
2022/08/06 03:21:42;;;;;;;4.22;3.83;;;22.10;99.90;;;;;;5138307;27;20038;-80
2022/08/06 03:24:09;;;;;;;3.30;3.00;;;22.20;99.90;;;;;;5138295;27;20039;-80
2022/08/06 03:26:36;;;;;;;4.18;3.80;;;22.10;99.90;;;;;;5156784;27;20110;-80
2022/08/06 03:29:03;;;;;;;3.83;3.50;;;22.10;99.90;;;;;;5157108;27;20063;-80
2022/08/06 03:31:31;;;;;;;4.43;3.53;;;22.00;99.90;;;;;;5138115;27;20031;-80
2022/08/06 03:33:58;;;;;;;4.28;3.65;;;22.00;99.90;;;;;;5156725;27;20026;-80
2022/08/06 03:36:26;;;;;;;5.55;3.88;;;22.00;99.90;;;;;;5138153;27;20057;-81
2022/08/06 03:39:07;;;;;;;4.32;3.60;;;22.00;99.90;;;;;;5156493;27;20027;-80
2022/08/06 03:41:36;;;;;;;6.35;3.88;;;22.00;99.90;;;;;;5138389;27;20049;-80
2022/08/06 03:44:03;;;;;;;4.13;3.75;;;22.10;99.90;;;;;;5136929;27;20031;-79
2022/08/06 03:46:34;;;;;;;4.25;3.50;;;22.10;99.90;;;;;;5156098;27;20142;-81
2022/08/06 03:49:04;;;;;;;4.22;3.72;;;22.10;99.90;;;;;;5138418;27;20019;-80
2022/08/06 03:51:30;;;;;;;4.03;3.53;;;22.10;99.90;;;;;;5156595;27;20053;-81
2022/08/06 03:53:59;;;;;;;3.83;3.35;;;22.10;99.90;;;;;;5156132;27;20019;-81
2022/08/06 03:56:27;;;;;;;;;;;22.20;99.90;;;;;;5138052;27;20495;-79
2022/08/06 03:58:54;;;;;;;4.25;3.40;;;22.20;99.90;;;;;;5138000;27;20305;-80
2022/08/06 04:01:25;;;;;;;3.83;3.50;;;22.30;99.90;;;;;;5137509;27;20023;-80
2022/08/06 04:03:52;;;;;;;3.78;3.38;;;22.30;99.90;;;;;;5155752;27;20029;-80
2022/08/06 04:06:20;;;;;;;4.88;2.92;;;22.30;99.90;;;;;;5137346;27;20034;-80
2022/08/06 04:08:46;;;;;;;3.42;3.13;;;22.30;99.90;;;;;;5155950;27;20049;-81
2022/08/06 04:11:13;;;;;;;3.63;3.33;;;22.30;99.90;;;;;;5155961;27;20034;-80
2022/08/06 04:13:40;;;;;;;3.90;3.20;;;22.30;99.90;;;;;;5137225;27;20436;-80
2022/08/06 04:16:07;;;;;;;6.15;3.15;;;22.40;99.90;;;;;;5155920;27;20027;-80
2022/08/06 04:18:35;;;;;;;6.30;3.00;;;22.30;99.90;;;;;;5156088;27;20030;-80
2022/08/06 04:21:04;;;;;;;5.18;3.53;;;22.30;99.90;;;;;;5155781;27;20033;-80
2022/08/06 04:23:30;;;;;;;;;;;22.30;99.90;;;;;;5155965;27;20442;-80
2022/08/06 04:25:58;;;;;;;3.38;3.08;;;22.30;99.90;;;;;;5155417;27;20018;-79
2022/08/06 04:28:26;;;;;;;3.95;3.25;;;22.40;99.90;;;;;;5136814;27;20023;-80
2022/08/06 04:30:54;;;;;;;3.93;3.57;;;22.30;99.90;;;;;;5155800;27;20027;-80
2022/08/06 04:33:21;;;;;;;6.00;3.15;;;22.40;99.90;;;;;;5137038;27;20019;-66
2022/08/06 04:35:48;;;;;;;5.80;3.17;;;22.50;99.90;;;;;;5155623;27;20041;-66
2022/08/06 04:38:16;;;;;;;3.15;2.88;;;22.60;99.90;;;;;;5155692;27;20070;-66
2022/08/06 04:40:42;;;;;;;4.57;4.27;;;22.60;99.90;;;;;;5155386;27;20046;-66
2022/08/06 04:43:12;;;;;;;3.78;3.47;;;22.70;99.90;;;;;;5136958;27;20034;-66
2022/08/06 04:45:40;;;;;;;5.72;3.67;;;22.70;99.90;;;;;;5136999;27;20113;-66
2022/08/06 04:48:08;;;;;;;3.72;3.42;;;22.70;99.90;;;;;;5136815;27;20057;-66
2022/08/06 04:50:35;;;;;;;4.53;3.90;;;22.70;99.90;;;;;;5155295;27;20030;-66
2022/08/06 04:53:15;;;;;;;4.38;3.30;;;22.80;99.90;;;;;;5155631;27;20371;-66
2022/08/06 04:55:42;;;;;;;5.35;3.40;;;22.80;99.90;;;;;;5154876;27;20490;-66
2022/08/06 04:58:10;;;;;;;3.92;3.60;;;22.80;99.90;;;;;;5155335;27;20027;-67
2022/08/06 05:00:38;;;;;;;2.95;2.75;;;22.70;99.90;;;;;;5136701;27;20167;-66
2022/08/06 05:03:04;;;;;;;4.15;3.20;;;22.80;99.90;;;;;;5155368;27;20027;-66
2022/08/06 05:05:35;;;;;;;3.83;3.10;;;22.80;99.90;;;;;;5155327;27;20034;-66
2022/08/06 05:08:04;;;;;;;3.80;3.45;;;22.80;99.90;;;;;;5136896;27;20062;-66
2022/08/06 05:10:37;;;;;;;4.25;3.20;;;22.90;99.90;;;;;;5155358;27;20103;-66
2022/08/06 05:13:05;;;;;;;4.22;3.65;;;22.90;99.90;;;;;;5136717;27;20046;-66
2022/08/06 05:15:40;;;;;;;3.67;3.45;;;22.90;99.90;;;;;;5136451;27;20038;-66
2022/08/06 05:18:17;;;;;;;4.00;3.38;;;22.90;99.90;;;;;;5155141;27;20098;-66
2022/08/06 05:20:49;;;;;;;3.92;3.40;;;22.90;99.90;;;;;;5154937;27;20376;-66
2022/08/06 05:23:24;;;;;;;4.95;2.67;;;22.90;99.90;;;;;;5154963;27;20463;-66
2022/08/06 05:25:50;;;;;;;3.47;3.17;;;23.00;99.90;;;;;;5136682;27;20045;-66
2022/08/06 05:28:15;;;;;;;4.03;3.40;;;22.90;99.90;;;;;;5154909;27;20019;-67
2022/08/06 05:30:49;;;;;;;3.63;2.95;;;22.90;99.90;;;;;;5154846;27;20515;-67
2022/08/06 05:33:24;;;;;;;6.88;3.10;;;22.90;99.90;;;;;;5154907;27;20026;-69
2022/08/06 05:35:49;;;;;;;3.33;3.13;;;22.90;99.90;;;;;;5154512;27;20037;-69
2022/08/06 05:38:15;;;;;;;3.65;3.25;;;23.00;99.90;;;;;;5154759;27;20023;-68
2022/08/06 05:40:40;;;;;;;3.35;3.05;;;23.00;99.90;;;;;;5154489;27;20484;-69
2022/08/06 05:43:06;;;;;;;3.42;2.90;;;23.10;99.90;;;;;;5154538;27;20023;-68
2022/08/06 05:45:33;;;;;;;4.32;3.05;;;23.10;99.90;;;;;;5154871;27;20031;-68
2022/08/06 05:48:01;;;;;;;3.60;2.97;;;23.10;99.90;;;;;;5154717;27;20131;-68
2022/08/06 05:50:34;;;;;;;5.75;3.67;;;23.10;99.90;;;;;;5154648;27;20023;-68
2022/08/06 05:53:09;;;;;;;3.13;2.90;;;23.30;99.90;;;;;;5154752;27;20442;-67
2022/08/06 05:56:01;;;;;;;3.05;2.60;;;23.30;99.90;;;;;;5154651;27;20027;-70
2022/08/06 05:58:36;;;;;;;3.50;3.03;;;23.50;99.90;;;;;;5124822;27;20373;-71
2022/08/06 06:01:05;;;;;;;4.82;2.63;;;23.60;99.90;;;;;;5136139;27;20022;-69
2022/08/06 06:03:31;;;;;;;2.88;2.67;;;23.70;99.90;;;;;;5136026;27;20035;-70
2022/08/06 06:05:59;;;;;;;3.35;3.05;;;23.70;99.90;;;;;;5154303;27;20038;-70
2022/08/06 06:08:25;;;;;;;5.30;3.10;;;23.80;99.90;;;;;;5156341;27;20468;-70
2022/08/06 06:10:52;;;;;;;3.80;2.88;;;23.70;99.90;;;;;;5139900;27;20158;-70
2022/08/06 06:13:19;;;;;;;3.13;2.90;;;23.60;99.90;;;;;;5158492;27;20054;-69
2022/08/06 06:16:09;;;;;;;2.90;2.67;;;23.40;99.90;;;;;;5158442;27;20494;-70
2022/08/06 06:18:38;;;;;;;2.92;2.50;;;23.30;99.90;;;;;;5138725;27;20038;-70
2022/08/06 06:21:37;;;;;;;2.85;2.58;;;23.10;99.90;;;;;;5158326;27;20027;-68
2022/08/06 06:24:06;;;;;;;3.95;3.10;;;23.10;99.90;;;;;;5158289;27;20417;-62
2022/08/06 06:26:54;;;;;;;4.10;2.65;;;23.00;99.90;;;;;;5139666;27;20039;-61
2022/08/06 06:29:38;;;;;;;3.85;3.33;;;22.90;99.90;;;;;;5158301;27;20035;-63
2022/08/06 06:32:14;;;;;;;4.93;2.90;;;22.90;99.90;;;;;;5158139;27;20083;-62
2022/08/06 06:35:02;;;;;;;3.63;3.20;;;22.80;99.90;;;;;;5139503;27;20084;-62
2022/08/06 06:37:31;;;;;;;;;;;22.80;99.90;;;;;;5159164;27;20038;-62
2022/08/06 06:40:31;;;;;;;3.00;2.80;;;22.80;99.90;;;;;;5157541;27;20407;-62
2022/08/06 06:43:12;;;;;;;5.18;3.03;;;22.80;99.90;;;;;;5115543;28;20039;-62
2022/08/06 06:45:47;;;;;;;3.15;2.95;;;22.70;99.90;;;;;;5116887;28;20475;-62
2022/08/06 06:48:18;;;;;;;3.92;2.83;;;22.80;99.90;;;;;;5115600;28;20384;-62
2022/08/06 06:50:52;;;;;;;3.40;3.10;;;22.80;99.90;;;;;;5116481;28;20444;-62
2022/08/06 06:53:19;;;;;;;2.45;2.25;;;22.80;99.90;;;;;;5116746;28;20027;-62
2022/08/06 06:55:54;;;;;;;5.18;1.60;;;22.70;99.90;;;;;;5116730;28;20051;-62
2022/08/06 06:58:37;;;;;;;1.63;1.50;;;22.60;99.90;;;;;;5116653;27;20034;-62
2022/08/06 07:01:09;;;;;;;1.35;1.27;;;22.50;99.90;;;;;;5116257;28;20503;-62
2022/08/06 07:03:38;;;;;;;1.10;1.10;;;22.40;99.90;;;;;;5116295;28;20026;-62
2022/08/06 07:06:05;;;;;;;1.70;1.00;;;22.20;99.90;;;;;;5114909;28;20476;-63
2022/08/06 07:08:34;;;;;;;1.05;0.95;;;22.10;99.90;;;;;;5116075;28;20038;-62
2022/08/06 07:11:01;;;;;;;1.13;0.85;;;21.90;99.90;;;;;;5116006;28;20023;-62
2022/08/06 07:13:28;;;;;;;2.47;1.17;;;21.80;99.90;;;;;;5116036;28;20076;-64
2022/08/06 07:15:56;;;;;;;2.22;0.98;;;21.70;99.90;;;;;;5115650;28;20036;-63
2022/08/06 07:18:26;;;;;;;2.20;1.08;;;21.60;99.90;;;;;;5115321;28;20055;-64
2022/08/06 07:20:53;;;;;;;0.90;0.90;;;21.60;99.90;;;;;;5114168;28;20028;-63
2022/08/06 07:23:20;;;;;;;1.05;1.05;;;21.70;99.90;;;;;;5115824;28;20105;-63
2022/08/06 07:25:48;;;;;;;1.05;0.95;;;21.70;99.90;;;;;;5114386;28;20498;-63
2022/08/06 07:28:15;;;;;;;1.15;0.90;;;21.70;99.90;;;;;;5114468;28;20464;-63
2022/08/06 07:30:42;;;;;;;0.90;0.90;;;21.70;99.90;;;;;;5114400;28;20066;-63
2022/08/06 07:33:10;;;;;;;5.50;1.00;;;21.70;99.90;;;;;;5115887;28;20020;-62
2022/08/06 07:35:40;;;;;;;0.75;0.75;;;21.70;99.90;;;;;;5115271;28;20035;-62
2022/08/06 07:38:07;;;;;;;1.30;0.95;;;21.70;99.90;;;;;;5116074;28;20020;-63
2022/08/06 07:40:46;;;;;;;1.30;1.20;;;21.60;99.90;;;;;;5123133;27;20133;-63
2022/08/06 07:43:15;;;;;;;;;;;21.70;99.90;;;;;;5156852;27;20463;-62
2022/08/06 07:45:41;;;;;;;1.35;1.00;;;21.70;99.90;;;;;;5156366;27;19965;-66
2022/08/06 07:48:11;;;;;;;0.73;0.73;;;21.70;99.90;;;;;;5138157;27;20380;-65
2022/08/06 07:50:39;;;;;;;0.85;0.85;;;21.70;99.90;;;;;;5156311;27;20031;-77
2022/08/06 07:53:06;;;;;;;1.45;0.95;;;21.60;99.90;;;;;;5138325;27;20385;-62
2022/08/06 07:55:33;;;;;;;3.85;0.60;;;21.60;99.90;;;;;;5156528;27;20483;-62
2022/08/06 07:58:01;;;;;;;1.50;0.50;;;21.50;99.90;;;;;;5156350;27;20133;-62
2022/08/06 08:00:26;;;;;;;0.80;0.70;;;21.50;99.90;;;;;;5137543;27;20019;-62
2022/08/06 08:08:25;;;;;;;0.57;0.57;;;21.30;99.90;;;;;;5155963;27;20034;-62
2022/08/06 08:10:55;;;;;;;2.17;0.50;;;21.30;99.90;;;;;;5137694;27;20022;-63
2022/08/06 08:13:22;;;;;;;0.90;0.70;;;21.20;99.90;;;;;;5137553;27;20522;-62
2022/08/06 08:15:49;;;;;;;0.60;0.60;;;21.20;99.90;;;;;;5156014;27;20460;-62
2022/08/06 08:18:14;;;;;;;0.60;0.60;;;21.20;99.90;;;;;;5137838;27;20371;-63
2022/08/06 08:20:42;;;;;;;2.22;0.80;;;21.30;99.90;;;;;;5155726;27;20029;-62
2022/08/06 08:23:11;;;;;;;2.70;0.73;;;21.20;99.90;;;;;;5156231;27;20030;-62
2022/08/06 08:25:37;;;;;;;;;;;21.10;99.90;;;;;;5137774;27;20027;-62
2022/08/06 08:28:07;;;;;;;6.25;1.25;;;21.10;99.90;;;;;;5155979;27;19911;-62
2022/08/06 08:30:33;;;;;;;2.33;0.90;;;21.10;99.90;;;;;;5155613;27;20033;-62
2022/08/06 08:32:59;;;;;;;0.70;0.70;;;21.10;99.90;;;;;;5155869;27;20015;-62
2022/08/06 08:35:24;;;;;;;4.68;0.70;;;21.20;99.90;;;;;;5136669;27;20414;-62
2022/08/06 08:37:50;;;;;;;1.60;0.50;;;21.40;99.90;;;;;;5137286;27;20023;-62
2022/08/06 08:40:16;;;;;;;1.38;0.70;;;21.50;99.90;;;;;;5137019;27;20110;-62
2022/08/06 08:42:55;;;;;;;2.53;0.50;;;21.60;99.90;;;;;;5137322;27;20121;-62
2022/08/06 08:45:21;;;;;;;0.98;0.60;;;21.70;99.90;;;;;;5137220;27;20038;-62
2022/08/06 08:47:51;;;;;;;0.63;0.63;;;21.70;99.90;;;;;;5137147;27;20031;-62
2022/08/06 08:50:22;;;;;;;3.65;0.50;;;21.70;99.90;;;;;;5156255;27;20022;-62
2022/08/06 08:52:51;;;;;;;0.73;0.73;;;21.70;99.90;;;;;;5137245;27;20019;-62
2022/08/06 08:55:21;;;;;;;2.58;0.80;;;21.60;99.90;;;;;;5155387;27;20022;-64
2022/08/06 08:57:48;;;;;;;0.77;0.70;;;21.50;99.90;;;;;;5164491;27;20113;-61
2022/08/06 09:00:14;;;;;;;3.17;1.00;;;21.40;99.90;;;;;;5158026;27;20118;-61
2022/08/06 09:02:41;;;;;;;2.75;0.75;;;21.40;99.90;;;;;;5157658;27;20028;-61
2022/08/06 09:05:07;;;;;;;0.77;0.60;;;21.30;99.90;;;;;;5157811;27;20037;-61
2022/08/06 09:07:34;;;;;;;2.97;0.60;;;21.30;99.90;;;;;;5158239;27;20045;-61
2022/08/06 09:10:00;;;;;;;0.80;0.50;;;21.30;99.90;;;;;;5157849;27;20364;-78
2022/08/06 09:12:26;;;;;;;0.70;0.60;;;21.40;99.90;;;;;;5176449;27;20110;-63
2022/08/06 09:14:51;;;;;;;1.67;0.50;;;21.50;99.90;;;;;;5157627;27;20022;-61
2022/08/06 09:17:17;;;;;;;1.33;0.20;;;21.60;99.90;;;;;;5157676;27;20022;-60
2022/08/06 09:19:43;;;;;;;0.70;0.60;;;21.60;99.90;;;;;;5157706;27;20025;-61
2022/08/06 09:22:10;;;;;;;0.95;0.40;;;21.60;99.90;;;;;;5176339;27;20101;-61
2022/08/06 09:24:37;;;;;;;0.90;0.52;;;21.60;99.90;;;;;;5176217;27;20034;-62
2022/08/06 09:27:07;;;;;;;6.00;0.40;;;21.60;99.90;;;;;;5157548;27;20539;-62
2022/08/06 09:29:33;;;;;;;0.35;0.35;;;21.50;99.90;;;;;;5176205;27;20078;-61
2022/08/06 09:32:00;;;;;;;0.85;0.50;;;21.50;99.90;;;;;;5157533;27;20355;-61
2022/08/06 09:34:52;;;;;;;4.22;0.50;;;21.40;99.90;;;;;;5157560;27;20595;-60
2022/08/06 09:37:27;;;;;;;0.55;0.50;;;21.20;99.90;;;;;;5152194;27;20039;-60
2022/08/06 09:39:53;;;;;;;1.02;0.40;;;21.20;99.90;;;;;;5173958;27;20166;-61
2022/08/06 09:42:37;;;;;;;1.17;0.30;;;21.20;99.90;;;;;;5155093;27;20527;-63
2022/08/06 09:45:13;;;;;;;0.25;0.25;;;21.10;99.90;;;;;;5158871;27;20038;-62
2022/08/06 09:47:40;;;;;;;2.28;0.40;;;21.10;99.90;;;;;;5159927;27;20031;-66
2022/08/06 09:50:07;;;;;;;0.30;0.30;;;21.20;99.90;;;;;;5160264;27;20030;-74
2022/08/06 09:52:33;;;;;;;0.35;0.30;;;21.20;99.90;;;;;;5171174;27;20030;-66
2022/08/06 09:54:59;;;;;;;0.25;0.25;;;21.10;99.90;;;;;;5150482;27;20395;-65
2022/08/06 09:57:27;;;;;;;4.57;0.50;;;21.30;99.90;;;;;;5170445;27;20109;-72
2022/08/06 09:59:53;;;;;;;0.25;0.20;;;21.40;99.90;;;;;;5178091;27;20030;-66
2022/08/06 10:02:20;;;;;;;0.40;0.40;;;21.30;99.90;;;;;;5179798;27;20090;-70
2022/08/06 10:04:48;;;;;;;2.95;0.30;;;21.20;99.90;;;;;;5168931;27;20039;-66
2022/08/06 10:07:16;;;;;;;3.70;0.30;;;21.00;99.90;;;;;;5159281;27;20015;-68
2022/08/06 10:09:57;;;;;;;2.08;0.45;;;21.10;99.90;;;;;;5157081;27;20062;-67
2022/08/06 10:12:24;;;;;;;1.65;0.45;;;21.10;99.90;;;;;;5157851;27;20026;-73
2022/08/06 10:14:50;;;;;;;2.55;0.68;;;21.10;99.90;;;;;;5157720;27;20027;-59
2022/08/06 10:17:20;;;;;;;0.98;0.60;;;21.00;99.90;;;;;;5159320;27;20083;-63
2022/08/06 10:20:03;;;;;;;2.80;0.70;;;21.00;99.90;;;;;;5159156;27;20065;-69
2022/08/06 10:22:29;;;;;;;1.30;0.47;;;21.10;99.90;;;;;;5159127;27;20035;-68
2022/08/06 10:24:56;;;;;;;1.15;0.70;;;21.20;99.90;;;;;;5158740;27;20022;-67
2022/08/06 10:27:28;;;;;;;4.70;1.25;;;21.30;99.90;;;;;;5158768;27;20022;-76
2022/08/06 10:30:05;;;;;;;0.73;0.73;;;21.50;99.90;;;;;;5159179;27;20022;-63
2022/08/06 10:32:45;;;;;;;1.73;0.85;;;21.50;99.90;;;;;;5112948;22;20576;-64
2022/08/06 10:35:14;;;;;;;1.90;1.10;;;21.60;99.90;;;;;;5076680;28;20029;-64
2022/08/06 10:37:42;;;;;;;1.88;1.17;;;21.70;99.90;;;;;;5058301;28;20086;-64
2022/08/06 10:40:11;;;;;;;1.27;1.00;;;21.80;99.90;;;;;;5076463;28;20043;-64
2022/08/06 10:42:38;;;;;;;3.00;1.15;;;21.80;99.90;;;;;;5076499;28;20104;-66
2022/08/06 10:45:05;;;;;;;2.10;1.50;;;21.80;99.90;;;;;;5076368;28;20025;-67
2022/08/06 10:47:33;;;;;;;1.65;1.55;;;21.40;99.90;;;;;;5057010;28;20539;-68
2022/08/06 10:50:00;;;;;;;1.75;1.65;;;21.10;99.90;;;;;;5076603;28;20033;-68
2022/08/06 10:52:26;;;;;;;1.50;1.40;;;21.00;99.90;;;;;;5058280;28;20423;-68
2022/08/06 10:54:53;;;;;;;1.33;1.27;;;21.00;99.90;;;;;;5075961;28;20028;-68
2022/08/06 10:57:19;;;;;;;1.40;1.30;;;21.10;99.90;;;;;;5076195;28;20130;-68
2022/08/06 10:59:47;;;;;;;2.20;1.60;;;21.30;99.90;;;;;;5076172;28;20511;-68
2022/08/06 11:02:33;;;;;;;2.28;1.77;;;21.50;99.90;;;;;;5076325;28;20028;-68
2022/08/06 11:05:04;;;;;;;2.28;1.35;;;22.00;99.90;;;;;;5058143;28;20039;-68
2022/08/06 11:07:47;;;;;;;1.77;1.67;;;22.40;99.90;;;;;;5076450;28;20025;-68
2022/08/06 11:10:32;;;;;;;2.08;1.33;;;22.70;99.90;;;;;;5058212;28;20025;-68
2022/08/06 11:13:13;;;;;;;3.47;1.98;;;23.00;99.90;;;;;;5075998;28;20104;-69
2022/08/06 11:15:41;;;;;;;1.10;1.10;;;23.30;99.90;;;;;;5075884;28;20028;-68
2022/08/06 11:18:09;;;;;;;2.25;2.00;;;23.40;99.90;;;;;;5075865;28;20028;-68
2022/08/06 11:20:37;;;;;;;3.08;1.45;;;23.40;99.90;;;;;;5057775;28;20478;-68
2022/08/06 11:23:05;;;;;;;1.40;1.30;;;23.40;99.90;;;;;;5057745;28;20024;-68
2022/08/06 11:25:39;;;;;;;1.38;1.27;;;23.30;99.90;;;;;;5075348;28;20393;-68
2022/08/06 11:28:06;;;;;;;2.08;1.23;;;23.50;99.90;;;;;;5057867;28;20028;-68
2022/08/06 11:30:41;;;;;;;1.35;1.10;;;24.00;99.90;;;;;;5057597;28;20035;-68
2022/08/06 11:33:07;;;;;;;2.80;1.50;;;24.40;99.90;;;;;;5075722;28;20162;-68
2022/08/06 11:35:33;;;;;;;2.22;1.20;;;24.60;99.90;;;;;;5075566;28;20370;-68
2022/08/06 11:38:00;;;;;;;1.75;1.00;;;24.90;99.40;;;;;;5057531;28;20025;-68
2022/08/06 11:40:26;;;;;;;3.72;1.40;;;24.80;99.00;;;;;;5075966;28;20123;-68
2022/08/06 11:42:51;;;;;;;1.50;1.10;;;25.10;99.00;;;;;;5056647;28;20111;-68
2022/08/06 11:45:17;;;;;;;2.30;1.13;;;25.70;97.80;;;;;;5049807;28;20478;-71
2022/08/06 11:48:06;;;;;;;2.63;1.05;;;25.80;97.40;;;;;;5054416;28;20032;-69
2022/08/06 11:50:32;;;;;;;1.20;1.10;;;26.00;96.80;;;;;;5064578;28;20032;-71
2022/08/06 11:52:57;;;;;;;2.85;1.13;;;26.20;95.40;;;;;;5055308;28;20024;-68
2022/08/06 11:55:23;;;;;;;1.92;1.55;;;26.30;95.20;;;;;;5053888;28;20055;-68
2022/08/06 11:57:50;;;;;;;1.52;0.98;;;26.50;94.50;;;;;;5053897;28;20025;-69
2022/08/06 12:00:21;;;;;;;2.97;1.30;;;26.20;93.90;;;;;;5055190;28;20490;-64
2022/08/06 12:02:51;;;;;;;2.38;1.25;;;25.40;95.10;;;;;;5037410;28;20056;-71
2022/08/06 12:05:32;;;;;;;4.93;1.25;;;25.20;95.60;;;;;;5054085;28;20029;-71
2022/08/06 12:08:21;;;;;;;1.35;1.10;;;25.20;95.80;;;;;;5053886;28;20417;-71
2022/08/06 12:11:27;;;;;;;3.17;1.10;;;25.70;95.20;;;;;;5037429;28;20032;-72
2022/08/06 12:13:53;;;;;;;5.35;1.00;;;26.20;94.10;;;;;;5055205;28;20354;-71
2022/08/06 12:16:45;;;;;;;4.45;1.30;;;26.90;92.80;;;;;;5054896;28;20025;-70
2022/08/06 12:19:13;;;;;;;3.40;0.90;;;26.50;92.60;;;;;;5035375;28;20064;-63
2022/08/06 12:21:40;;;;;;;1.17;1.00;;;26.30;93.00;;;;;;5054958;28;20049;-63
2022/08/06 12:24:07;;;;;;;2.40;1.20;;;26.20;93.20;;;;;;5036911;28;20058;-64
2022/08/06 12:26:33;;;;;;;1.25;1.15;;;25.80;92.80;;;;;;5036758;28;20025;-66
2022/08/06 12:29:02;;;;;;;5.75;1.20;;;25.10;93.90;;;;;;5054623;28;20478;-66
2022/08/06 12:31:30;;;;;;;1.70;1.10;;;24.50;95.60;;;;;;5055021;28;20051;-66
2022/08/06 12:33:56;;;;;;;1.45;1.30;;;24.20;96.50;;;;;;5054364;28;20458;-63
2022/08/06 12:36:27;;;;;;;4.13;1.50;;;24.30;97.30;;;;;;5054331;28;20040;-62
2022/08/06 12:38:57;;;;;;;3.08;1.20;;;24.50;96.90;;;;;;5036695;28;20053;-63
2022/08/06 12:41:31;;;;;;;1.10;1.10;;;24.40;96.90;;;;;;5054300;28;20017;-62
2022/08/06 12:43:57;;;;;;;1.92;1.05;;;24.30;97.00;;;;;;5054247;28;20075;-61
2022/08/06 12:46:24;;;;;;;2.92;1.65;;;24.00;97.50;;;;;;5054172;28;20029;-71
2022/08/06 12:48:50;;;;;;;4.90;1.45;;;24.30;98.30;;;;;;5036435;28;20037;-68
2022/08/06 12:51:16;;;;;;;5.65;5.15;;;25.40;96.20;;;;;;5054106;28;20025;-70
2022/08/06 12:53:48;;;;;;;1.23;1.23;;;24.90;95.60;;;;;;5036236;28;20025;-73
2022/08/06 12:56:16;;;;;;;2.22;1.63;;;24.20;96.50;;;;;;5036155;28;20524;-74
2022/08/06 12:58:43;;;;;;;3.65;1.20;;;23.70;97.60;;;;;;5036011;28;20021;-73
2022/08/06 13:01:16;;;;;;;1.08;1.08;;;23.30;98.10;;;;;;5053910;28;20112;-75
2022/08/06 13:03:46;;;;;;;1.33;1.17;;;23.00;99.30;;;;;;5036413;28;20099;-77
2022/08/06 13:06:14;;;;;;;1.85;1.30;;;22.80;99.50;;;;;;5036479;28;20032;-75
2022/08/06 13:08:41;;;;;;;1.63;1.42;;;22.50;99.90;;;;;;5035947;28;20029;-76